Causapscal, Canada
Current Conditions -  °F | °C
As of 3:00 PM on Thursday 18 Dec 2014 (Local Time) from CYYY Reporting Station
Light Snow Light Snow  
Wind Chill: 11°   Ceiling: 500
Heat Index: 27°   Visibility: 0.75mi
Dew Point: 25°   Wind: 25mph
Humidity: 93%   Direction: 360°N
Pressure: 29.72"   Gusts: 31mph
Location:  48.35°N, 67.22°W
Report Text: CYYY 182000Z 36022G27KT 3/4SM R06/P6000FT/N -SN BLSN VV005 M03/M04 A2972 RMK BLSN8 SLP066
Loading
Personal Weather Stations






























Interactive Weather Map New forecast layout! Learn more

10-Day Weather Forecast

Advertisements
Track Severe Weather on mobile